Time;durP1;ratioP1;P1;durP2;ratioP2;P2;SDS_P1;SDS_P2;PMS_P1;PMS_P2;Temp;Humidity;BMP_temperature;BMP_pressure;BME280_temperature;BME280_humidity;BME280_pressure;Samples;Min_cycle;Max_cycle;Signal;HPM_P1;HPM_P2
2022/11/14 00:03:15;;;;;;;8.10;4.87;;;;;;;2.17;100.00;97658.59;18527059;32;20508;-63
2022/11/14 00:13:19;;;;;;;8.77;5.10;;;;;;;2.11;100.00;97651.44;18548300;32;20253;-64
2022/11/14 00:23:21;;;;;;;9.47;5.87;;;;;;;2.06;100.00;97645.94;18561845;32;20530;-63
2022/11/14 00:33:24;;;;;;;7.83;5.70;;;;;;;2.08;100.00;97631.34;18561183;32;20052;-63
2022/11/14 00:43:26;;;;;;;7.93;5.00;;;;;;;2.11;100.00;97622.09;18560814;32;20364;-63
2022/11/14 00:53:28;;;;;;;8.47;5.10;;;;;;;2.02;100.00;97608.22;18560536;32;20071;-63
2022/11/14 01:03:31;;;;;;;7.40;5.20;;;;;;;1.95;100.00;97608.25;18560014;32;20044;-64
2022/11/14 01:13:33;;;;;;;9.73;6.63;;;;;;;1.94;100.00;97592.47;18560036;32;20044;-65
2022/11/14 01:23:36;;;;;;;8.07;5.97;;;;;;;1.93;100.00;97562.31;18420661;32;20148;-63
2022/11/14 01:33:38;;;;;;;7.07;5.27;;;;;;;1.97;100.00;97558.19;18417848;32;20080;-63
2022/11/14 01:43:42;;;;;;;7.83;5.73;;;;;;;1.90;100.00;97552.09;18432508;32;20069;-62
2022/11/14 01:53:47;;;;;;;7.97;5.20;;;;;;;1.83;100.00;97536.12;18452267;32;20349;-63
2022/11/14 02:03:51;;;;;;;7.20;4.97;;;;;;;1.76;100.00;97523.91;18570405;32;20055;-63
2022/11/14 02:13:55;;;;;;;6.33;5.07;;;;;;;1.77;100.00;97514.84;18569641;32;20053;-63
2022/11/14 02:23:57;;;;;;;6.83;4.70;;;;;;;1.72;100.00;97506.72;18555444;32;20477;-63
2022/11/14 02:34:00;;;;;;;7.27;5.03;;;;;;;1.61;100.00;97485.06;18568755;32;20124;-65
2022/11/14 02:44:02;;;;;;;6.10;4.33;;;;;;;1.60;100.00;97482.59;18567616;32;20086;-63
2022/11/14 02:54:05;;;;;;;7.37;5.13;;;;;;;1.48;100.00;97478.00;18553594;32;20041;-66
2022/11/14 03:04:07;;;;;;;8.17;4.87;;;;;;;1.42;100.00;97480.69;18566347;32;20081;-66
2022/11/14 03:14:09;;;;;;;8.03;4.97;;;;;;;1.48;100.00;97479.81;18566671;32;20109;-63
2022/11/14 03:24:12;;;;;;;7.00;4.90;;;;;;;1.53;100.00;97480.00;18558911;32;20064;-66
2022/11/14 03:34:14;;;;;;;6.53;5.17;;;;;;;1.59;100.00;97480.97;18564870;32;20067;-63
2022/11/14 03:44:16;;;;;;;7.73;5.87;;;;;;;1.79;100.00;97478.16;18549957;32;20085;-63
2022/11/14 03:54:18;;;;;;;11.90;6.20;;;;;;;1.94;100.00;97483.97;18562846;32;20060;-63
2022/11/14 04:04:21;;;;;;;8.37;5.50;;;;;;;2.09;100.00;97482.81;18563099;32;20090;-63
2022/11/14 04:14:23;;;;;;;7.67;4.83;;;;;;;2.27;100.00;97490.81;18562507;32;20097;-63
2022/11/14 04:24:25;;;;;;;8.70;5.80;;;;;;;2.65;100.00;97478.31;18561812;32;20074;-63
2022/11/14 04:34:27;;;;;;;9.07;6.10;;;;;;;2.96;100.00;97476.47;18561551;32;20075;-63
2022/11/14 04:44:30;;;;;;;5.70;4.50;;;;;;;3.26;100.00;97478.34;18561078;32;20086;-63
2022/11/14 04:54:32;;;;;;;5.53;4.00;;;;;;;3.46;100.00;97472.72;18546543;32;20423;-64
2022/11/14 05:04:34;;;;;;;5.50;3.97;;;;;;;3.54;100.00;97472.38;18427652;32;20449;-63
2022/11/14 05:14:37;;;;;;;4.47;3.63;;;;;;;3.67;100.00;97472.19;18434422;32;20525;-63
2022/11/14 05:24:39;;;;;;;5.27;3.77;;;;;;;3.82;100.00;97465.56;18433985;32;20092;-63
2022/11/14 05:34:41;;;;;;;5.50;4.10;;;;;;;3.93;100.00;97456.72;18444146;32;20119;-63
2022/11/14 05:44:44;;;;;;;4.07;3.20;;;;;;;4.10;100.00;97456.03;18506594;32;20148;-63
2022/11/14 05:54:46;;;;;;;3.53;2.93;;;;;;;4.16;100.00;97447.06;18504852;32;20053;-63
2022/11/14 06:04:48;;;;;;;3.27;2.93;;;;;;;4.21;100.00;97444.53;18545711;31;20485;-64
2022/11/14 06:14:51;;;;;;;4.30;3.10;;;;;;;4.29;100.00;97438.81;18555434;32;20040;-63
2022/11/14 06:24:53;;;;;;;7.03;4.60;;;;;;;4.42;100.00;97445.75;18555396;32;20360;-63
2022/11/14 06:34:56;;;;;;;6.63;4.23;;;;;;;4.51;100.00;97444.34;18568741;32;20127;-63
2022/11/14 06:44:58;;;;;;;5.70;4.17;;;;;;;4.62;100.00;97448.06;18428954;32;20065;-63
2022/11/14 06:55:01;;;;;;;7.23;4.27;;;;;;;4.74;100.00;97456.88;18428602;32;20071;-63
2022/11/14 07:05:04;;;;;;;6.43;4.90;;;;;;;4.86;100.00;97459.50;18427337;32;20061;-63
2022/11/14 07:15:08;;;;;;;8.63;5.57;;;;;;;5.00;100.00;97465.41;18537073;32;20053;-63
2022/11/14 07:25:11;;;;;;;9.00;5.37;;;;;;;5.13;100.00;97472.34;18565414;32;20101;-63
2022/11/14 07:35:14;;;;;;;8.90;5.33;;;;;;;5.28;100.00;97484.41;18564957;32;20444;-63
2022/11/14 07:45:21;;;;;;;7.53;4.47;;;;;;;5.43;100.00;97480.13;18564164;32;20053;-63
2022/11/14 07:55:26;;;;;;;6.20;4.43;;;;;;;5.61;100.00;97486.31;18549736;32;20322;-63
2022/11/14 08:05:29;;;;;;;6.20;4.77;;;;;;;5.81;100.00;97483.16;18548164;32;20048;-63
2022/11/14 08:15:32;;;;;;;4.60;3.60;;;;;;;6.02;100.00;97492.38;18563117;32;20057;-62
2022/11/14 08:25:35;;;;;;;6.37;4.13;;;;;;;6.20;100.00;97490.50;18561764;32;20083;-63
2022/11/14 08:35:45;;;;;;;6.40;4.33;;;;;;;6.38;100.00;97490.22;18561128;32;20376;-62
2022/11/14 08:45:52;;;;;;;5.70;3.80;;;;;;;6.53;100.00;97491.50;18560895;32;20404;-63
2022/11/14 08:56:05;;;;;;;6.80;4.97;;;;;;;6.70;100.00;97497.62;18560392;32;20436;-63
2022/11/14 09:06:10;;;;;;;6.03;3.87;;;;;;;6.90;100.00;97493.56;18560094;31;20044;-63
2022/11/14 09:16:14;;;;;;;7.22;4.95;;;;;;;7.19;100.00;97504.12;18560223;32;20052;-63
2022/11/14 09:26:19;;;;;;;8.30;5.70;;;;;;;7.47;100.00;97511.94;18545451;32;20092;-63
2022/11/14 09:36:35;;;;;;;9.87;6.40;;;;;;;7.74;100.00;97511.16;18559546;32;20056;-63
2022/11/14 09:47:15;;;;;;;6.80;5.40;;;;;;;7.97;100.00;97533.41;18552349;32;20065;-62
2022/11/14 09:57:24;;;;;;;9.60;5.20;;;;;;;8.23;100.00;97536.31;18571179;32;20065;-63
2022/11/14 10:08:06;;;;;;;7.63;5.43;;;;;;;8.34;100.00;97548.78;18570297;32;20055;-63
2022/11/14 10:18:32;;;;;;;6.77;4.73;;;;;;;8.51;100.00;97559.44;18570328;32;20059;-63
2022/11/14 10:29:05;;;;;;;6.50;4.80;;;;;;;8.71;100.00;97569.53;18568781;32;20056;-63
2022/11/14 10:39:14;;;;;;;7.63;5.60;;;;;;;8.98;100.00;97574.81;18554465;32;20081;-63
2022/11/14 10:49:25;;;;;;;6.33;4.50;;;;;;;9.21;100.00;97578.16;18567685;32;20097;-63
2022/11/14 10:59:33;;;;;;;5.97;3.93;;;;;;;9.49;100.00;97570.69;18553027;32;20052;-63
2022/11/14 11:20:37;;;;;;;10.90;7.15;;;;;;;10.19;100.00;97572.97;18565887;32;20101;-63
2022/11/14 11:30:59;;;;;;;8.45;5.70;;;;;;;10.85;100.00;97585.66;18172562;32;20112;-63
2022/11/14 11:41:24;;;;;;;5.53;4.55;;;;;;;11.26;100.00;97579.31;18172116;32;20121;-63
2022/11/14 11:52:11;;;;;;;7.62;4.97;;;;;;;11.48;100.00;97570.03;18171529;32;20450;-63
2022/11/14 12:02:23;;;;;;;5.20;3.85;;;;;;;12.02;100.00;97580.03;18326080;32;20056;-63
2022/11/14 12:13:02;;;;;;;4.62;3.00;;;;;;;11.94;100.00;97586.06;18497453;32;20044;-63
2022/11/14 12:23:50;;;;;;;4.55;2.85;;;;;;;11.99;100.00;97594.16;18497183;32;20057;-62
2022/11/14 12:34:03;;;;;;;4.00;2.75;;;;;;;11.85;100.00;97602.06;18496526;32;20049;-63
2022/11/14 12:44:33;;;;;;;3.30;2.30;;;;;;;11.59;100.00;97603.28;18494738;32;20037;-63
2022/11/14 12:54:47;;;;;;;3.90;2.40;;;;;;;11.38;100.00;97607.97;18495759;32;20072;-62
2022/11/14 13:05:34;;;;;;;3.70;2.30;;;;;;;11.32;100.00;97613.41;18535728;32;20041;-63
2022/11/14 13:26:19;;;;;;;5.50;3.42;;;;;;;11.21;100.00;97619.12;18560408;32;20107;-63
2022/11/14 13:36:41;;;;;;;6.47;3.33;;;;;;;11.04;100.00;97614.03;18572260;32;20116;-63
2022/11/14 13:47:08;;;;;;;4.30;3.00;;;;;;;10.81;100.00;97610.81;18571858;32;20138;-63
2022/11/14 13:57:17;;;;;;;5.47;3.33;;;;;;;10.60;100.00;97596.53;18571027;32;20065;-63
2022/11/14 14:07:48;;;;;;;5.35;3.47;;;;;;;10.51;100.00;97599.78;18569956;31;20044;-64
2022/11/14 14:17:59;;;;;;;5.07;3.58;;;;;;;10.41;100.00;97601.66;18563340;32;20470;-62
2022/11/14 14:28:21;;;;;;;5.53;3.53;;;;;;;10.25;100.00;97588.12;18569155;32;20065;-62
2022/11/14 14:38:28;;;;;;;5.43;3.33;;;;;;;10.22;100.00;97577.03;18567916;32;20075;-63
2022/11/14 14:48:35;;;;;;;5.75;3.20;;;;;;;10.12;100.00;97570.53;18554169;32;20097;-62
2022/11/14 14:58:39;;;;;;;5.30;3.28;;;;;;;10.05;100.00;97567.31;18567686;32;20048;-63
2022/11/14 15:08:44;;;;;;;4.93;3.00;;;;;;;9.93;100.00;97572.94;18566926;32;20072;-63
2022/11/14 15:18:50;;;;;;;3.75;2.55;;;;;;;9.79;100.00;97572.66;18565954;32;20390;-63
2022/11/14 15:29:16;;;;;;;4.30;2.70;;;;;;;9.62;100.00;97562.09;18565622;32;20107;-63
2022/11/14 15:39:27;;;;;;;4.70;2.37;;;;;;;9.44;100.00;97563.41;18551089;32;20049;-62
2022/11/14 15:49:30;;;;;;;5.32;2.90;;;;;;;9.22;100.00;97555.47;18424282;32;20148;-63
2022/11/14 15:59:35;;;;;;;7.70;3.83;;;;;;;9.03;100.00;97552.47;18424328;32;20095;-62
2022/11/14 16:09:40;;;;;;;10.18;6.25;;;;;;;8.88;100.00;97557.75;18423961;32;20076;-63
2022/11/14 16:19:43;;;;;;;12.83;5.83;;;;;;;8.77;100.00;97549.63;18444622;32;20061;-63
2022/11/14 16:29:45;;;;;;;9.10;4.43;;;;;;;8.73;100.00;97567.41;18561777;32;20063;-63
2022/11/14 16:39:48;;;;;;;7.27;4.83;;;;;;;8.70;100.00;97565.22;18547760;32;20079;-63
2022/11/14 16:49:51;;;;;;;6.90;4.10;;;;;;;8.64;100.00;97572.44;18546966;32;20081;-63
2022/11/14 16:59:56;;;;;;;4.70;2.63;;;;;;;8.63;100.00;97578.09;18553457;32;20076;-63
2022/11/14 17:09:59;;;;;;;3.37;2.05;;;;;;;8.59;100.00;97572.44;18560457;32;20342;-63
2022/11/14 17:20:02;;;;;;;1.97;1.33;;;;;;;8.57;100.00;97577.25;18559914;32;20079;-63
2022/11/14 17:30:06;;;;;;;4.03;1.60;;;;;;;8.54;100.00;97571.56;18545746;32;20073;-63
2022/11/14 17:40:09;;;;;;;2.90;1.53;;;;;;;8.47;100.00;97577.19;18559489;32;20052;-62
2022/11/14 17:50:16;;;;;;;2.73;1.80;;;;;;;8.42;100.00;97577.13;18559188;32;20044;-63
2022/11/14 18:00:19;;;;;;;4.90;1.70;;;;;;;8.36;100.00;97592.44;18545017;32;20128;-62
2022/11/14 18:10:22;;;;;;;3.73;2.10;;;;;;;8.33;100.00;97582.16;18547437;32;20379;-63
2022/11/14 18:20:25;;;;;;;2.30;1.73;;;;;;;8.31;100.00;97573.53;18570099;32;20399;-62
2022/11/14 18:30:27;;;;;;;3.47;1.90;;;;;;;8.26;100.00;97576.19;18569364;32;20081;-63
2022/11/14 18:40:43;;;;;;;3.33;2.30;;;;;;;8.21;100.00;97581.53;18568704;32;20087;-63
2022/11/14 18:50:47;;;;;;;4.43;2.10;;;;;;;8.26;100.00;97584.25;18428639;32;20114;-63
2022/11/14 19:00:49;;;;;;;3.20;2.37;;;;;;;8.27;100.00;97577.81;18236892;32;20492;-63
2022/11/14 19:10:53;;;;;;;4.00;2.30;;;;;;;8.29;100.00;97581.06;18236580;32;20246;-63
2022/11/14 19:21:02;;;;;;;3.90;2.63;;;;;;;8.27;100.00;97578.63;18336682;32;20413;-63
2022/11/14 19:31:06;;;;;;;3.53;2.63;;;;;;;8.19;100.00;97573.69;18512446;32;20091;-63
2022/11/14 19:41:20;;;;;;;3.97;2.70;;;;;;;8.01;100.00;97569.50;18564887;32;20056;-63
2022/11/14 19:51:24;;;;;;;5.15;2.72;;;;;;;7.76;100.00;97581.66;18564710;32;20052;-62
2022/11/14 20:01:27;;;;;;;3.83;2.67;;;;;;;7.70;100.00;97574.63;18549377;32;20048;-63
2022/11/14 20:11:30;;;;;;;5.00;2.40;;;;;;;7.55;100.00;97582.50;18549111;32;20049;-63
2022/11/14 20:21:34;;;;;;;4.30;3.07;;;;;;;7.46;100.00;97585.66;18562407;32;20112;-63
2022/11/14 20:31:37;;;;;;;3.23;2.50;;;;;;;7.34;100.00;97576.09;18561236;32;20041;-63
2022/11/14 20:41:39;;;;;;;5.60;3.03;;;;;;;7.39;100.00;97601.19;18541653;32;20060;-63
2022/11/14 20:51:42;;;;;;;4.20;3.00;;;;;;;7.51;100.00;97597.53;18561013;32;20095;-63
2022/11/14 21:01:45;;;;;;;5.57;3.60;;;;;;;7.53;100.00;97579.28;18560512;32;20444;-63
2022/11/14 21:11:47;;;;;;;4.63;3.10;;;;;;;7.40;100.00;97592.06;18560621;32;20049;-63
2022/11/14 21:21:50;;;;;;;5.30;3.33;;;;;;;7.11;100.00;97588.72;18545622;32;20369;-62
2022/11/14 21:31:53;;;;;;;6.33;3.80;;;;;;;6.86;100.00;97581.16;18559812;32;20044;-63
2022/11/14 21:41:56;;;;;;;7.77;5.90;;;;;;;6.64;100.00;97581.91;18559607;32;20101;-62
2022/11/14 21:51:58;;;;;;;8.93;5.77;;;;;;;6.72;100.00;97565.38;18572094;32;20049;-63
2022/11/14 22:12:23;;;;;;;13.57;7.47;;;;;;;6.59;100.00;97557.66;18570721;32;20067;-65
2022/11/14 22:22:25;;;;;;;13.33;7.93;;;;;;;6.75;100.00;97570.25;18555701;32;20052;-63
2022/11/14 22:32:27;;;;;;;11.57;7.37;;;;;;;6.86;100.00;97567.72;18562399;32;20068;-63
2022/11/14 22:42:30;;;;;;;10.13;6.13;;;;;;;6.88;100.00;97565.56;18568630;32;20105;-63
2022/11/14 22:52:32;;;;;;;11.47;6.30;;;;;;;6.90;100.00;97553.50;18567960;32;20109;-63
2022/11/14 23:02:35;;;;;;;8.23;4.97;;;;;;;6.84;100.00;97556.38;18427526;32;20091;-63
2022/11/14 23:12:37;;;;;;;7.00;3.80;;;;;;;6.83;100.00;97565.53;18427888;32;20073;-63
2022/11/14 23:22:40;;;;;;;6.07;3.83;;;;;;;6.87;100.00;97556.69;18428179;32;20122;-63
2022/11/14 23:32:44;;;;;;;4.17;3.50;;;;;;;6.93;100.00;97544.13;18436957;32;20091;-63
2022/11/14 23:42:46;;;;;;;4.23;3.70;;;;;;;7.00;100.00;97535.91;18499818;32;20401;-63
2022/11/14 23:52:49;;;;;;;5.83;3.40;;;;;;;7.06;100.00;97532.22;18499101;32;20057;-63
